Onat — 3EBN4 — position and weather

sailwx.info

Track history (hours):
 
Tides and Currents Weather Stations Pressure Air Temp Water Temp Dewpoint Dewpoint Depression Visibility Wind Speed Wind Dir Waves Ship Positions

Onat

Last reported at 2018-Jan-11 04:10 UTC. Time now 2018-Jan-18 07:43 UTC.
Position N 37°52' E 026°16'.

Length 91 m; draft 3.5 m.

Type: Cargo ship. MMSI: 355854000.

Date/timePositionNaut miles runAvg speedWind from/ knotsBaromVisibWave heightAir tempDewpointWater temp
2018-Jan-11 04:10N 37°52' E 026°16'310.9
2018-Jan-11 03:55N 37°51' E 026°19'510.8
2018-Jan-11 03:27N 37°47' E 026°24'1111.5
2018-Jan-11 02:32N 37°40' E 026°33'112.1
2018-Jan-11 02:24N 37°39' E 026°34'711.5
2018-Jan-11 01:46N 37°34' E 026°41'611.6
2018-Jan-11 01:15N 37°30' E 026°46'411.3
2018-Jan-11 00:54N 37°27' E 026°49'511.3
2018-Jan-11 00:27N 37°24' E 026°55'  
2018-Jan-07 14:34N 36°47' E 026°33'110.8
2018-Jan-07 14:31N 36°46' E 026°32'510.6
2018-Jan-07 14:00N 36°45' E 026°26'510.7
2018-Jan-07 13:30N 36°43' E 026°20'510.6
2018-Jan-07 13:00N 36°42' E 026°13'510.9
2018-Jan-07 12:30N 36°40' E 026°07'611.2
2018-Jan-07 12:00N 36°38' E 026°00'611.2
2018-Jan-07 11:30N 36°37' E 025°54'510.8
2018-Jan-07 11:01N 36°35' E 025°47'510.7
2018-Jan-07 10:30N 36°34' E 025°41'510.6
2018-Jan-07 10:00N 36°34' E 025°34'510.6
2018-Jan-07 09:30N 36°33' E 025°27'510.5
2018-Jan-07 09:00N 36°33' E 025°21'510.6
2018-Jan-07 08:31N 36°32' E 025°14'510.5
2018-Jan-07 08:00N 36°32' E 025°08'510.7
2018-Jan-07 07:30N 36°31' E 025°01'510.7
2018-Jan-07 07:00N 36°31' E 024°55'510.6
2018-Jan-07 06:31N 36°30' E 024°48'510.8
2018-Jan-07 06:00N 36°29' E 024°41'510.6
2018-Jan-07 05:30N 36°29' E 024°35'2510.8
2018-Jan-07 03:09N 36°26' E 024°04'210.8
2018-Jan-07 03:00N 36°26' E 024°01'510.9
2018-Jan-07 02:30N 36°26' E 023°55'611.0
2018-Jan-07 01:58N 36°25' E 023°47'911.2
2018-Jan-07 01:07N 36°24' E 023°36'44310.8
2018-Jan-05 08:01N 36°45' E 014°24'011.1
2018-Jan-05 08:00N 36°45' E 014°24'511.1
2018-Jan-05 07:31N 36°48' E 014°18'611.7
2018-Jan-05 07:00N 36°50' E 014°11'611.3
2018-Jan-05 06:30N 36°53' E 014°05'611.0
2018-Jan-05 06:00N 36°55' E 013°58'510.8
2018-Jan-05 05:30N 36°57' E 013°52'611.5
2018-Jan-05 05:00N 36°59' E 013°46'612.2
2018-Jan-05 04:31N 37°02' E 013°39'20711.2
2018-Jan-04 10:03N 37°24' E 009°20'111.8
2018-Jan-04 09:55N 37°23' E 009°18'511.8
2018-Jan-04 09:30N 37°22' E 009°12'611.8
2018-Jan-04 09:00N 37°20' E 009°05'611.4
2018-Jan-04 08:30N 37°19' E 008°58'  
2018-Jan-01 21:22N 35°57' W 005°13'410.6
2018-Jan-01 21:01N 35°55' W 005°17'2 4.4
2018-Jan-01 20:31N 35°54' W 005°19'0 0.1
2018-Jan-01 20:00N 35°54' W 005°19'0 0.0
2018-Jan-01 19:30N 35°54' W 005°19'0 0.0
2018-Jan-01 19:00N 35°54' W 005°19'0 0.0
2018-Jan-01 18:30N 35°54' W 005°19'0 0.0
2018-Jan-01 18:00N 35°54' W 005°19'0 0.0
2018-Jan-01 17:30N 35°54' W 005°19'1 0.3
2018-Jan-01 15:00N 35°55' W 005°19'0 0.0
2018-Jan-01 14:30N 35°55' W 005°19'0 0.0
2018-Jan-01 14:00N 35°55' W 005°19'0 0.0
2018-Jan-01 13:27N 35°55' W 005°19'0 0.0
2018-Jan-01 13:00N 35°55' W 005°19'0 0.1
2018-Jan-01 12:00N 35°55' W 005°19'0 0.1
2018-Jan-01 11:30N 35°55' W 005°19'0 0.0
2018-Jan-01 11:00N 35°55' W 005°19'0 0.0
2018-Jan-01 10:30N 35°55' W 005°19'0 0.0
2018-Jan-01 10:00N 35°55' W 005°19'0 0.0
2018-Jan-01 09:30N 35°55' W 005°19'0 0.0
2018-Jan-01 08:30N 35°55' W 005°19'0 0.0
2018-Jan-01 08:00N 35°55' W 005°19'0 0.1
2018-Jan-01 07:30N 35°55' W 005°19'0 0.6
2018-Jan-01 07:00N 35°55' W 005°19'  
Track history (hours):
 
Tides and Currents Weather Stations Pressure Air Temp Water Temp Dewpoint Dewpoint Depression Visibility Wind Speed Wind Dir Waves Ship Positions

Onat

Last reported at 2018-Jan-11 04:10 UTC. Time now 2018-Jan-18 07:43 UTC.
Position N 37°52' E 026°16'.

Length 91 m; draft 3.5 m.

Type: Cargo ship. MMSI: 355854000.

Date/timePositionNaut miles runAvg speedWind from/ knotsBaromVisibWave heightAir tempDewpointWater temp
2018-Jan-11 04:10N 37°52' E 026°16'310.9
2018-Jan-11 03:55N 37°51' E 026°19'510.8
2018-Jan-11 03:27N 37°47' E 026°24'1111.5
2018-Jan-11 02:32N 37°40' E 026°33'112.1
2018-Jan-11 02:24N 37°39' E 026°34'711.5
2018-Jan-11 01:46N 37°34' E 026°41'611.6
2018-Jan-11 01:15N 37°30' E 026°46'411.3
2018-Jan-11 00:54N 37°27' E 026°49'511.3
2018-Jan-11 00:27N 37°24' E 026°55'  
2018-Jan-07 14:34N 36°47' E 026°33'110.8
2018-Jan-07 14:31N 36°46' E 026°32'510.6
2018-Jan-07 14:00N 36°45' E 026°26'510.7
2018-Jan-07 13:30N 36°43' E 026°20'510.6
2018-Jan-07 13:00N 36°42' E 026°13'510.9
2018-Jan-07 12:30N 36°40' E 026°07'611.2
2018-Jan-07 12:00N 36°38' E 026°00'611.2
2018-Jan-07 11:30N 36°37' E 025°54'510.8
2018-Jan-07 11:01N 36°35' E 025°47'510.7
2018-Jan-07 10:30N 36°34' E 025°41'510.6
2018-Jan-07 10:00N 36°34' E 025°34'510.6
2018-Jan-07 09:30N 36°33' E 025°27'510.5
2018-Jan-07 09:00N 36°33' E 025°21'510.6
2018-Jan-07 08:31N 36°32' E 025°14'510.5
2018-Jan-07 08:00N 36°32' E 025°08'510.7
2018-Jan-07 07:30N 36°31' E 025°01'510.7
2018-Jan-07 07:00N 36°31' E 024°55'510.6
2018-Jan-07 06:31N 36°30' E 024°48'510.8
2018-Jan-07 06:00N 36°29' E 024°41'510.6
2018-Jan-07 05:30N 36°29' E 024°35'2510.8
2018-Jan-07 03:09N 36°26' E 024°04'210.8
2018-Jan-07 03:00N 36°26' E 024°01'510.9
2018-Jan-07 02:30N 36°26' E 023°55'611.0
2018-Jan-07 01:58N 36°25' E 023°47'911.2
2018-Jan-07 01:07N 36°24' E 023°36'44310.8
2018-Jan-05 08:01N 36°45' E 014°24'011.1
2018-Jan-05 08:00N 36°45' E 014°24'511.1
2018-Jan-05 07:31N 36°48' E 014°18'611.7
2018-Jan-05 07:00N 36°50' E 014°11'611.3
2018-Jan-05 06:30N 36°53' E 014°05'611.0
2018-Jan-05 06:00N 36°55' E 013°58'510.8
2018-Jan-05 05:30N 36°57' E 013°52'611.5
2018-Jan-05 05:00N 36°59' E 013°46'612.2
2018-Jan-05 04:31N 37°02' E 013°39'20711.2
2018-Jan-04 10:03N 37°24' E 009°20'111.8
2018-Jan-04 09:55N 37°23' E 009°18'511.8
2018-Jan-04 09:30N 37°22' E 009°12'611.8
2018-Jan-04 09:00N 37°20' E 009°05'611.4
2018-Jan-04 08:30N 37°19' E 008°58'  
2018-Jan-01 21:22N 35°57' W 005°13'410.6
2018-Jan-01 21:01N 35°55' W 005°17'2 4.4
2018-Jan-01 20:31N 35°54' W 005°19'0 0.1
2018-Jan-01 20:00N 35°54' W 005°19'0 0.0
2018-Jan-01 19:30N 35°54' W 005°19'0 0.0
2018-Jan-01 19:00N 35°54' W 005°19'0 0.0
2018-Jan-01 18:30N 35°54' W 005°19'0 0.0
2018-Jan-01 18:00N 35°54' W 005°19'0 0.0
2018-Jan-01 17:30N 35°54' W 005°19'1 0.3
2018-Jan-01 15:00N 35°55' W 005°19'0 0.0
2018-Jan-01 14:30N 35°55' W 005°19'0 0.0
2018-Jan-01 14:00N 35°55' W 005°19'0 0.0
2018-Jan-01 13:27N 35°55' W 005°19'0 0.0
2018-Jan-01 13:00N 35°55' W 005°19'0 0.1
2018-Jan-01 12:00N 35°55' W 005°19'0 0.1
2018-Jan-01 11:30N 35°55' W 005°19'0 0.0
2018-Jan-01 11:00N 35°55' W 005°19'0 0.0
2018-Jan-01 10:30N 35°55' W 005°19'0 0.0
2018-Jan-01 10:00N 35°55' W 005°19'0 0.0
2018-Jan-01 09:30N 35°55' W 005°19'0 0.0
2018-Jan-01 08:30N 35°55' W 005°19'0 0.0
2018-Jan-01 08:00N 35°55' W 005°19'0 0.1
2018-Jan-01 07:30N 35°55' W 005°19'0 0.6
2018-Jan-01 07:00N 35°55' W 005°19'  

Dump ship's entire track history